AAL6095 KCLE-KJFK
Flight info
| Callsign | AAL6095 |
|---|---|
| Flight time | 1h 11m |
| Altitude | 37000 |
| Route | PFLYD1 JASEE JHW Q476 WLKES |
| Aircraft | B738/M-SDE2E3FGHIRWXY/LB1 |
Departure
| Time | 2026-05-08 23:34 |
|---|---|
| Airport | Cleveland Hopkins International Airport (KCLE) |
Arrival
| Time | 2026-05-09 00:46 |
|---|---|
| Airport | John F. Kennedy International Airport (KJFK) |
| Time | Latitude | Longitude | Altitude | Speed | Heading |
|---|---|---|---|---|---|
| 2026-05-08 22:54 | 41.40759 | -81.84078 | 758 ft | 0 kts | 261° |
| 2026-05-08 23:08 | 41.40760 | -81.84078 | 769 ft | 0 kts | 261° |
| 2026-05-08 23:18 | 41.40762 | -81.84061 | 767 ft | 2 kts | 261° |
| 2026-05-08 23:19 | 41.40764 | -81.84040 | 768 ft | 2 kts | 260° |
| 2026-05-08 23:19 | 41.40767 | -81.84018 | 769 ft | 2 kts | 259° |
| 2026-05-08 23:19 | 41.40770 | -81.83996 | 769 ft | 2 kts | 258° |
| 2026-05-08 23:19 | 41.40774 | -81.83975 | 769 ft | 2 kts | 253° |
| 2026-05-08 23:20 | 41.40781 | -81.83955 | 767 ft | 2 kts | 222° |
| 2026-05-08 23:20 | 41.40785 | -81.83950 | 767 ft | 0 kts | 214° |
| 2026-05-08 23:24 | 41.40760 | -81.83972 | 769 ft | 5 kts | 212° |
| 2026-05-08 23:24 | 41.40729 | -81.83999 | 767 ft | 5 kts | 212° |
| 2026-05-08 23:25 | 41.40697 | -81.84025 | 767 ft | 5 kts | 212° |
| 2026-05-08 23:25 | 41.40667 | -81.84050 | 767 ft | 5 kts | 212° |
| 2026-05-08 23:25 | 41.40637 | -81.84075 | 767 ft | 5 kts | 212° |
| 2026-05-08 23:25 | 41.40615 | -81.84112 | 767 ft | 5 kts | 246° |
| 2026-05-08 23:26 | 41.40611 | -81.84157 | 767 ft | 5 kts | 269° |
| 2026-05-08 23:26 | 41.40610 | -81.84202 | 767 ft | 5 kts | 269° |
| 2026-05-08 23:26 | 41.40609 | -81.84274 | 767 ft | 9 kts | 269° |
| 2026-05-08 23:26 | 41.40608 | -81.84359 | 767 ft | 9 kts | 269° |
| 2026-05-08 23:27 | 41.40636 | -81.84428 | 769 ft | 9 kts | 329° |
| 2026-05-08 23:27 | 41.40695 | -81.84434 | 769 ft | 8 kts | 359° |
| 2026-05-08 23:27 | 41.40753 | -81.84435 | 769 ft | 8 kts | 1° |
| 2026-05-08 23:27 | 41.40804 | -81.84434 | 767 ft | 5 kts | 0° |
| 2026-05-08 23:28 | 41.40837 | -81.84434 | 767 ft | 5 kts | 0° |
| 2026-05-08 23:28 | 41.40868 | -81.84432 | 767 ft | 4 kts | 10° |
| 2026-05-08 23:28 | 41.40904 | -81.84404 | 767 ft | 8 kts | 33° |
| 2026-05-08 23:28 | 41.40958 | -81.84383 | 769 ft | 8 kts | 6° |
| 2026-05-08 23:29 | 41.41012 | -81.84378 | 769 ft | 8 kts | 3° |
| 2026-05-08 23:29 | 41.41064 | -81.84378 | 769 ft | 7 kts | 359° |
| 2026-05-08 23:29 | 41.41114 | -81.84381 | 769 ft | 7 kts | 0° |
| 2026-05-08 23:29 | 41.41164 | -81.84381 | 769 ft | 7 kts | 0° |
| 2026-05-08 23:30 | 41.41211 | -81.84370 | 753 ft | 7 kts | 27° |
| 2026-05-08 23:30 | 41.41245 | -81.84323 | 753 ft | 7 kts | 48° |
| 2026-05-08 23:30 | 41.41286 | -81.84261 | 753 ft | 9 kts | 49° |
| 2026-05-08 23:30 | 41.41327 | -81.84197 | 753 ft | 9 kts | 49° |
| 2026-05-08 23:31 | 41.41367 | -81.84135 | 753 ft | 9 kts | 49° |
| 2026-05-08 23:31 | 41.41422 | -81.84112 | 753 ft | 9 kts | 352° |
| 2026-05-08 23:31 | 41.41447 | -81.84123 | 753 ft | 0 kts | 327° |
| 2026-05-08 23:32 | 41.41457 | -81.84134 | 752 ft | 3 kts | 320° |
| 2026-05-08 23:32 | 41.41474 | -81.84154 | 753 ft | 6 kts | 319° |
| 2026-05-08 23:32 | 41.41506 | -81.84221 | 752 ft | 9 kts | 279° |
| 2026-05-08 23:33 | 41.41503 | -81.84243 | 752 ft | 1 kts | 247° |
| 2026-05-08 23:33 | 41.41498 | -81.84256 | 752 ft | 0 kts | 236° |
| 2026-05-08 23:33 | 41.41489 | -81.84272 | 751 ft | 17 kts | 232° |
| 2026-05-08 23:33 | 41.41226 | -81.84689 | 754 ft | 100 kts | 230° |
| 2026-05-08 23:34 | 41.40632 | -81.85649 | 825 ft | 163 kts | 229° |
| 2026-05-08 23:34 | 41.39876 | -81.86867 | 1686 ft | 172 kts | 230° |
| 2026-05-08 23:34 | 41.39137 | -81.88011 | 3009 ft | 162 kts | 239° |
| 2026-05-08 23:34 | 41.38830 | -81.89532 | 3533 ft | 184 kts | 264° |
| 2026-05-08 23:35 | 41.38909 | -81.91356 | 3735 ft | 210 kts | 277° |
| 2026-05-08 23:35 | 41.39181 | -81.93315 | 4263 ft | 221 kts | 278° |
| 2026-05-08 23:35 | 41.39478 | -81.95414 | 4693 ft | 237 kts | 278° |
| 2026-05-08 23:35 | 41.39779 | -81.97604 | 5482 ft | 242 kts | 278° |
| 2026-05-08 23:36 | 41.40073 | -81.99775 | 5874 ft | 239 kts | 278° |
| 2026-05-08 23:36 | 41.40363 | -82.01979 | 6007 ft | 246 kts | 278° |
| 2026-05-08 23:36 | 41.40653 | -82.04248 | 6704 ft | 248 kts | 278° |
| 2026-05-08 23:36 | 41.40941 | -82.06505 | 7710 ft | 247 kts | 278° |
| 2026-05-08 23:37 | 41.41227 | -82.08757 | 8606 ft | 249 kts | 279° |
| 2026-05-08 23:37 | 41.41817 | -82.10941 | 9446 ft | 256 kts | 301° |
| 2026-05-08 23:37 | 41.43057 | -82.12671 | 10303 ft | 264 kts | 320° |
| 2026-05-08 23:37 | 41.44791 | -82.13783 | 10610 ft | 296 kts | 341° |
| 2026-05-08 23:38 | 41.46952 | -82.13881 | 11025 ft | 325 kts | 5° |
| 2026-05-08 23:38 | 41.49099 | -82.12857 | 11756 ft | 340 kts | 23° |
| 2026-05-08 23:38 | 41.50993 | -82.10863 | 12543 ft | 354 kts | 41° |
| 2026-05-08 23:38 | 41.52621 | -82.08354 | 13323 ft | 361 kts | 46° |
| 2026-05-08 23:39 | 41.54200 | -82.05724 | 14008 ft | 367 kts | 46° |
| 2026-05-08 23:39 | 41.55831 | -82.03073 | 14704 ft | 370 kts | 45° |
| 2026-05-08 23:39 | 41.57519 | -82.00458 | 15411 ft | 373 kts | 43° |
| 2026-05-08 23:39 | 41.59246 | -81.97861 | 16121 ft | 376 kts | 43° |
| 2026-05-08 23:40 | 41.60987 | -81.95229 | 16799 ft | 382 kts | 46° |
| 2026-05-08 23:40 | 41.62278 | -81.92057 | 17434 ft | 398 kts | 69° |
| 2026-05-08 23:40 | 41.62728 | -81.88419 | 18114 ft | 406 kts | 83° |
| 2026-05-08 23:40 | 41.62897 | -81.84627 | 18651 ft | 412 kts | 85° |
| 2026-05-08 23:41 | 41.63064 | -81.80768 | 19128 ft | 419 kts | 84° |
| 2026-05-08 23:41 | 41.63263 | -81.76861 | 19637 ft | 424 kts | 84° |
| 2026-05-08 23:41 | 41.63485 | -81.72901 | 20161 ft | 430 kts | 84° |
| 2026-05-08 23:41 | 41.63713 | -81.68893 | 20674 ft | 435 kts | 84° |
| 2026-05-08 23:42 | 41.63943 | -81.64843 | 21167 ft | 441 kts | 84° |
| 2026-05-08 23:42 | 41.64175 | -81.60731 | 21656 ft | 446 kts | 84° |
| 2026-05-08 23:42 | 41.64405 | -81.56570 | 22155 ft | 452 kts | 84° |
| 2026-05-08 23:42 | 41.64679 | -81.52367 | 22621 ft | 456 kts | 79° |
| 2026-05-08 23:43 | 41.65414 | -81.48237 | 23061 ft | 458 kts | 70° |
| 2026-05-08 23:43 | 41.66376 | -81.44157 | 23521 ft | 462 kts | 68° |
| 2026-05-08 23:43 | 41.67400 | -81.40062 | 23900 ft | 467 kts | 68° |
| 2026-05-08 23:43 | 41.68414 | -81.35977 | 24291 ft | 471 kts | 68° |
| 2026-05-08 23:44 | 41.69426 | -81.31785 | 24667 ft | 476 kts | 68° |
| 2026-05-08 23:44 | 41.70422 | -81.27534 | 25055 ft | 481 kts | 69° |
| 2026-05-08 23:44 | 41.71409 | -81.23236 | 25416 ft | 486 kts | 69° |
| 2026-05-08 23:44 | 41.72397 | -81.18890 | 25773 ft | 490 kts | 69° |
| 2026-05-08 23:45 | 41.73390 | -81.14505 | 26127 ft | 495 kts | 69° |
| 2026-05-08 23:45 | 41.74393 | -81.10075 | 26487 ft | 499 kts | 69° |
| 2026-05-08 23:45 | 41.75404 | -81.05611 | 26835 ft | 503 kts | 69° |
| 2026-05-08 23:45 | 41.76423 | -81.01109 | 27173 ft | 507 kts | 69° |
| 2026-05-08 23:46 | 41.77434 | -80.96648 | 27516 ft | 511 kts | 69° |
| 2026-05-08 23:46 | 41.78481 | -80.92074 | 27859 ft | 515 kts | 69° |
| 2026-05-08 23:46 | 41.79542 | -80.87462 | 28183 ft | 519 kts | 69° |
| 2026-05-08 23:46 | 41.80491 | -80.82771 | 28488 ft | 526 kts | 76° |
| 2026-05-08 23:47 | 41.80936 | -80.77867 | 28797 ft | 533 kts | 86° |
| 2026-05-08 23:47 | 41.81098 | -80.72897 | 29123 ft | 536 kts | 87° |
| 2026-05-08 23:47 | 41.81204 | -80.67881 | 29412 ft | 540 kts | 88° |
| 2026-05-08 23:47 | 41.81298 | -80.62828 | 29685 ft | 544 kts | 88° |
| 2026-05-08 23:48 | 41.81404 | -80.57739 | 29976 ft | 547 kts | 87° |
| 2026-05-08 23:48 | 41.81525 | -80.52711 | 30246 ft | 550 kts | 87° |
| 2026-05-08 23:48 | 41.81664 | -80.47577 | 30567 ft | 551 kts | 87° |
| 2026-05-08 23:48 | 41.81813 | -80.42446 | 30891 ft | 551 kts | 86° |
| 2026-05-08 23:49 | 41.81965 | -80.37312 | 31211 ft | 552 kts | 86° |
| 2026-05-08 23:49 | 41.82118 | -80.32168 | 31512 ft | 553 kts | 86° |
| 2026-05-08 23:49 | 41.82267 | -80.27026 | 31842 ft | 552 kts | 86° |
| 2026-05-08 23:49 | 41.82413 | -80.21895 | 32259 ft | 550 kts | 86° |
| 2026-05-08 23:50 | 41.82553 | -80.16780 | 32742 ft | 546 kts | 86° |
| 2026-05-08 23:50 | 41.82690 | -80.11704 | 33179 ft | 543 kts | 86° |
| 2026-05-08 23:50 | 41.82823 | -80.06653 | 33556 ft | 542 kts | 86° |
| 2026-05-08 23:50 | 41.82954 | -80.01602 | 33896 ft | 541 kts | 86° |
| 2026-05-08 23:51 | 41.83082 | -79.96570 | 34207 ft | 540 kts | 86° |
| 2026-05-08 23:51 | 41.83209 | -79.91547 | 34486 ft | 539 kts | 86° |
| 2026-05-08 23:51 | 41.83331 | -79.86589 | 34731 ft | 539 kts | 86° |
| 2026-05-08 23:51 | 41.83453 | -79.81570 | 34968 ft | 539 kts | 87° |
| 2026-05-08 23:52 | 41.83572 | -79.76551 | 35224 ft | 538 kts | 87° |
| 2026-05-08 23:52 | 41.83689 | -79.71543 | 35477 ft | 538 kts | 87° |
| 2026-05-08 23:52 | 41.83804 | -79.66531 | 35738 ft | 537 kts | 87° |
| 2026-05-08 23:52 | 41.83916 | -79.61525 | 35991 ft | 536 kts | 87° |
| 2026-05-08 23:53 | 41.84027 | -79.56535 | 36263 ft | 535 kts | 87° |
| 2026-05-08 23:53 | 41.84134 | -79.51553 | 36528 ft | 534 kts | 87° |
| 2026-05-08 23:53 | 41.84240 | -79.46581 | 36741 ft | 534 kts | 87° |
| 2026-05-08 23:53 | 41.84342 | -79.41676 | 36924 ft | 534 kts | 87° |
| 2026-05-08 23:54 | 41.84544 | -79.31683 | 36923 ft | 536 kts | 87° |
| 2026-05-08 23:55 | 41.84828 | -79.16769 | 36920 ft | 530 kts | 88° |
| 2026-05-08 23:55 | 41.85005 | -79.06917 | 36923 ft | 527 kts | 88° |
| 2026-05-08 23:56 | 41.85172 | -78.97172 | 36920 ft | 525 kts | 88° |
| 2026-05-08 23:56 | 41.85331 | -78.87388 | 36916 ft | 525 kts | 88° |
| 2026-05-08 23:57 | 41.85483 | -78.77580 | 36910 ft | 527 kts | 88° |
| 2026-05-08 23:57 | 41.85627 | -78.67741 | 36901 ft | 528 kts | 88° |
| 2026-05-08 23:58 | 41.85762 | -78.57877 | 36915 ft | 530 kts | 88° |
| 2026-05-08 23:58 | 41.85889 | -78.48041 | 36914 ft | 532 kts | 88° |
| 2026-05-08 23:59 | 41.86009 | -78.38098 | 36916 ft | 534 kts | 88° |
| 2026-05-08 23:59 | 41.86120 | -78.28127 | 36926 ft | 535 kts | 88° |
| 2026-05-09 00:00 | 41.86222 | -78.18145 | 36920 ft | 535 kts | 88° |
| 2026-05-09 00:00 | 41.86316 | -78.08222 | 36921 ft | 535 kts | 88° |
| 2026-05-09 00:01 | 41.86402 | -77.98247 | 36915 ft | 535 kts | 89° |
| 2026-05-09 00:01 | 41.86393 | -77.88282 | 36908 ft | 534 kts | 95° |
| 2026-05-09 00:02 | 41.84931 | -77.78602 | 36917 ft | 528 kts | 113° |
| 2026-05-09 00:02 | 41.82391 | -77.69389 | 36930 ft | 527 kts | 114° |
| 2026-05-09 00:03 | 41.79892 | -77.60158 | 36925 ft | 527 kts | 112° |
| 2026-05-09 00:03 | 41.77476 | -77.50960 | 36925 ft | 527 kts | 113° |
| 2026-05-09 00:04 | 41.75012 | -77.41732 | 36914 ft | 527 kts | 113° |
| 2026-05-09 00:04 | 41.72527 | -77.32485 | 36917 ft | 528 kts | 113° |
| 2026-05-09 00:05 | 41.70041 | -77.23240 | 36925 ft | 529 kts | 113° |
| 2026-05-09 00:05 | 41.67538 | -77.13964 | 36920 ft | 531 kts | 114° |
| 2026-05-09 00:06 | 41.65040 | -77.04739 | 36921 ft | 532 kts | 114° |
| 2026-05-09 00:06 | 41.62510 | -76.95426 | 36918 ft | 534 kts | 114° |
| 2026-05-09 00:07 | 41.59970 | -76.86099 | 36918 ft | 535 kts | 114° |
| 2026-05-09 00:07 | 41.57415 | -76.76758 | 36912 ft | 536 kts | 114° |
| 2026-05-09 00:08 | 41.54848 | -76.67403 | 36911 ft | 537 kts | 114° |
| 2026-05-09 00:08 | 41.52273 | -76.58054 | 36920 ft | 537 kts | 114° |
| 2026-05-09 00:09 | 41.49708 | -76.48765 | 36923 ft | 537 kts | 114° |
| 2026-05-09 00:09 | 41.48409 | -76.44068 | 36478 ft | 543 kts | 114° |
| 2026-05-09 00:09 | 41.47103 | -76.39357 | 35952 ft | 541 kts | 114° |
| 2026-05-09 00:09 | 41.45799 | -76.34654 | 35376 ft | 541 kts | 114° |
| 2026-05-09 00:10 | 41.44490 | -76.29943 | 34801 ft | 541 kts | 115° |
| 2026-05-09 00:10 | 41.43182 | -76.25244 | 34275 ft | 540 kts | 115° |
| 2026-05-09 00:10 | 41.41871 | -76.20547 | 33598 ft | 542 kts | 115° |
| 2026-05-09 00:10 | 41.40554 | -76.15841 | 32910 ft | 543 kts | 114° |
| 2026-05-09 00:11 | 41.39251 | -76.11188 | 32215 ft | 543 kts | 114° |
| 2026-05-09 00:11 | 41.37924 | -76.06464 | 31380 ft | 547 kts | 114° |
| 2026-05-09 00:11 | 41.36592 | -76.01726 | 30857 ft | 543 kts | 113° |
| 2026-05-09 00:11 | 41.35274 | -75.97040 | 30351 ft | 538 kts | 113° |
| 2026-05-09 00:12 | 41.33965 | -75.92396 | 29835 ft | 534 kts | 113° |
| 2026-05-09 00:12 | 41.32665 | -75.87793 | 29261 ft | 529 kts | 113° |
| 2026-05-09 00:12 | 41.31378 | -75.83247 | 28736 ft | 522 kts | 113° |
| 2026-05-09 00:12 | 41.30102 | -75.78751 | 28239 ft | 517 kts | 113° |
| 2026-05-09 00:13 | 41.28839 | -75.74303 | 27722 ft | 512 kts | 112° |
| 2026-05-09 00:13 | 41.27583 | -75.69893 | 27224 ft | 508 kts | 112° |
| 2026-05-09 00:13 | 41.26283 | -75.65569 | 26748 ft | 502 kts | 115° |
| 2026-05-09 00:13 | 41.24903 | -75.61395 | 26279 ft | 497 kts | 117° |
| 2026-05-09 00:14 | 41.23476 | -75.57245 | 25784 ft | 493 kts | 117° |
| 2026-05-09 00:14 | 41.22048 | -75.53113 | 25309 ft | 489 kts | 117° |
| 2026-05-09 00:14 | 41.20645 | -75.49017 | 24826 ft | 486 kts | 116° |
| 2026-05-09 00:14 | 41.19261 | -75.44931 | 24327 ft | 484 kts | 116° |
| 2026-05-09 00:15 | 41.17896 | -75.40872 | 23866 ft | 481 kts | 116° |
| 2026-05-09 00:15 | 41.16535 | -75.36826 | 23363 ft | 478 kts | 115° |
| 2026-05-09 00:15 | 41.15205 | -75.32882 | 22973 ft | 471 kts | 115° |
| 2026-05-09 00:15 | 41.13865 | -75.28910 | 22941 ft | 460 kts | 115° |
| 2026-05-09 00:16 | 41.12571 | -75.25083 | 22956 ft | 463 kts | 115° |
| 2026-05-09 00:16 | 41.11245 | -75.21164 | 22956 ft | 468 kts | 116° |
| 2026-05-09 00:16 | 41.09910 | -75.17223 | 22942 ft | 468 kts | 115° |
| 2026-05-09 00:16 | 41.08581 | -75.13298 | 22943 ft | 466 kts | 115° |
| 2026-05-09 00:17 | 41.07256 | -75.09395 | 22941 ft | 464 kts | 116° |
| 2026-05-09 00:17 | 41.05931 | -75.05500 | 22954 ft | 463 kts | 116° |
| 2026-05-09 00:17 | 41.04606 | -75.01612 | 22952 ft | 463 kts | 116° |
| 2026-05-09 00:17 | 41.03282 | -74.97732 | 22963 ft | 463 kts | 116° |
| 2026-05-09 00:18 | 41.01971 | -74.93889 | 22961 ft | 464 kts | 116° |
| 2026-05-09 00:18 | 41.00640 | -74.89996 | 22973 ft | 465 kts | 116° |
| 2026-05-09 00:18 | 40.99420 | -74.86040 | 22957 ft | 466 kts | 105° |
| 2026-05-09 00:18 | 40.98808 | -74.81835 | 22992 ft | 465 kts | 97° |
| 2026-05-09 00:19 | 40.98347 | -74.77593 | 22958 ft | 465 kts | 96° |
| 2026-05-09 00:19 | 40.97913 | -74.73384 | 22828 ft | 458 kts | 96° |
| 2026-05-09 00:19 | 40.97477 | -74.69237 | 22455 ft | 453 kts | 96° |
| 2026-05-09 00:19 | 40.97025 | -74.65121 | 21972 ft | 451 kts | 97° |
| 2026-05-09 00:20 | 40.96559 | -74.61039 | 21466 ft | 449 kts | 97° |
| 2026-05-09 00:20 | 40.96090 | -74.57026 | 21047 ft | 445 kts | 97° |
| 2026-05-09 00:20 | 40.95614 | -74.53011 | 20649 ft | 440 kts | 97° |
| 2026-05-09 00:20 | 40.95139 | -74.49033 | 20268 ft | 435 kts | 97° |
| 2026-05-09 00:21 | 40.94669 | -74.45114 | 20051 ft | 427 kts | 97° |
| 2026-05-09 00:21 | 40.94207 | -74.41267 | 19903 ft | 419 kts | 97° |
| 2026-05-09 00:21 | 40.93749 | -74.37446 | 19790 ft | 424 kts | 97° |
| 2026-05-09 00:21 | 40.93282 | -74.33564 | 19667 ft | 431 kts | 97° |
| 2026-05-09 00:22 | 40.92810 | -74.29645 | 19531 ft | 430 kts | 97° |
| 2026-05-09 00:22 | 40.92339 | -74.25757 | 19397 ft | 426 kts | 97° |
| 2026-05-09 00:22 | 40.91872 | -74.21906 | 19265 ft | 421 kts | 97° |
| 2026-05-09 00:22 | 40.91417 | -74.18173 | 19137 ft | 411 kts | 97° |
| 2026-05-09 00:23 | 40.90966 | -74.14496 | 19000 ft | 400 kts | 98° |
| 2026-05-09 00:23 | 40.90188 | -74.11061 | 18900 ft | 389 kts | 118° |
| 2026-05-09 00:23 | 40.88629 | -74.08215 | 18849 ft | 380 kts | 141° |
| 2026-05-09 00:23 | 40.86495 | -74.06275 | 18782 ft | 369 kts | 161° |
| 2026-05-09 00:24 | 40.84133 | -74.04974 | 18555 ft | 365 kts | 166° |
| 2026-05-09 00:24 | 40.81762 | -74.03816 | 18311 ft | 362 kts | 167° |
| 2026-05-09 00:24 | 40.79407 | -74.02699 | 18044 ft | 360 kts | 167° |
| 2026-05-09 00:24 | 40.77042 | -74.01584 | 17759 ft | 359 kts | 167° |
| 2026-05-09 00:25 | 40.74685 | -74.00477 | 17432 ft | 358 kts | 167° |
| 2026-05-09 00:25 | 40.72381 | -73.99394 | 17118 ft | 357 kts | 167° |
| 2026-05-09 00:25 | 40.70046 | -73.98295 | 16804 ft | 355 kts | 167° |
| 2026-05-09 00:25 | 40.67731 | -73.97202 | 16480 ft | 352 kts | 167° |
| 2026-05-09 00:26 | 40.65437 | -73.96113 | 16170 ft | 349 kts | 167° |
| 2026-05-09 00:26 | 40.63169 | -73.95031 | 15854 ft | 345 kts | 167° |
| 2026-05-09 00:26 | 40.60919 | -73.93953 | 15551 ft | 343 kts | 167° |
| 2026-05-09 00:26 | 40.58685 | -73.92880 | 15166 ft | 342 kts | 167° |
| 2026-05-09 00:27 | 40.56437 | -73.91799 | 14730 ft | 344 kts | 167° |
| 2026-05-09 00:27 | 40.54214 | -73.90734 | 14315 ft | 346 kts | 167° |
| 2026-05-09 00:27 | 40.51947 | -73.89649 | 13872 ft | 344 kts | 167° |
| 2026-05-09 00:27 | 40.49717 | -73.88575 | 13349 ft | 339 kts | 167° |
| 2026-05-09 00:28 | 40.47515 | -73.87512 | 12819 ft | 335 kts | 167° |
| 2026-05-09 00:28 | 40.45338 | -73.86463 | 12293 ft | 331 kts | 167° |
| 2026-05-09 00:28 | 40.43192 | -73.85429 | 11773 ft | 326 kts | 167° |
| 2026-05-09 00:28 | 40.41072 | -73.84409 | 11266 ft | 322 kts | 167° |
| 2026-05-09 00:29 | 40.38986 | -73.83405 | 10755 ft | 317 kts | 167° |
| 2026-05-09 00:29 | 40.36927 | -73.82415 | 10279 ft | 313 kts | 167° |
| 2026-05-09 00:29 | 40.34904 | -73.81443 | 9777 ft | 308 kts | 167° |
| 2026-05-09 00:29 | 40.32899 | -73.80480 | 9233 ft | 304 kts | 167° |
| 2026-05-09 00:30 | 40.30952 | -73.79564 | 8705 ft | 298 kts | 171° |
| 2026-05-09 00:30 | 40.28972 | -73.79326 | 8220 ft | 277 kts | 197° |
| 2026-05-09 00:30 | 40.27178 | -73.79983 | 7861 ft | 263 kts | 206° |
| 2026-05-09 00:30 | 40.25472 | -73.80799 | 7530 ft | 261 kts | 207° |
| 2026-05-09 00:31 | 40.23774 | -73.81645 | 7229 ft | 262 kts | 207° |
| 2026-05-09 00:31 | 40.21981 | -73.82188 | 6909 ft | 274 kts | 185° |
| 2026-05-09 00:31 | 40.20079 | -73.81724 | 6639 ft | 282 kts | 169° |
| 2026-05-09 00:31 | 40.18203 | -73.80951 | 6348 ft | 283 kts | 168° |
| 2026-05-09 00:32 | 40.16335 | -73.80147 | 6028 ft | 283 kts | 166° |
| 2026-05-09 00:32 | 40.14645 | -73.78839 | 5707 ft | 293 kts | 139° |
| 2026-05-09 00:32 | 40.13516 | -73.76636 | 5438 ft | 295 kts | 111° |
| 2026-05-09 00:32 | 40.13222 | -73.74009 | 5180 ft | 292 kts | 83° |
| 2026-05-09 00:33 | 40.13819 | -73.71528 | 4934 ft | 285 kts | 55° |
| 2026-05-09 00:33 | 40.15144 | -73.69692 | 4688 ft | 275 kts | 32° |
| 2026-05-09 00:33 | 40.16727 | -73.68320 | 4441 ft | 272 kts | 28° |
| 2026-05-09 00:33 | 40.18333 | -73.67017 | 4181 ft | 271 kts | 28° |
| 2026-05-09 00:34 | 40.19941 | -73.65734 | 4049 ft | 272 kts | 27° |
| 2026-05-09 00:34 | 40.21568 | -73.64446 | 4015 ft | 274 kts | 27° |
| 2026-05-09 00:34 | 40.23192 | -73.63164 | 4013 ft | 272 kts | 27° |
| 2026-05-09 00:34 | 40.24789 | -73.61905 | 3902 ft | 269 kts | 27° |
| 2026-05-09 00:35 | 40.26350 | -73.60672 | 3759 ft | 255 kts | 27° |
| 2026-05-09 00:35 | 40.27830 | -73.59500 | 3610 ft | 242 kts | 27° |
| 2026-05-09 00:35 | 40.29238 | -73.58382 | 3472 ft | 233 kts | 27° |
| 2026-05-09 00:35 | 40.30604 | -73.57298 | 3332 ft | 227 kts | 27° |
| 2026-05-09 00:36 | 40.31946 | -73.56236 | 3206 ft | 224 kts | 27° |
| 2026-05-09 00:36 | 40.33292 | -73.55181 | 3093 ft | 227 kts | 27° |
| 2026-05-09 00:36 | 40.34644 | -73.54132 | 3034 ft | 228 kts | 27° |
| 2026-05-09 00:36 | 40.36007 | -73.53077 | 3012 ft | 223 kts | 27° |
| 2026-05-09 00:37 | 40.37341 | -73.52045 | 3006 ft | 222 kts | 27° |
| 2026-05-09 00:37 | 40.38654 | -73.51030 | 3005 ft | 222 kts | 27° |
| 2026-05-09 00:37 | 40.39985 | -73.49997 | 3020 ft | 223 kts | 27° |
| 2026-05-09 00:37 | 40.41312 | -73.48961 | 3004 ft | 218 kts | 27° |
| 2026-05-09 00:38 | 40.42553 | -73.47981 | 3007 ft | 199 kts | 27° |
| 2026-05-09 00:38 | 40.43744 | -73.47133 | 2988 ft | 191 kts | 10° |
| 2026-05-09 00:38 | 40.44996 | -73.47210 | 3019 ft | 178 kts | 333° |
| 2026-05-09 00:38 | 40.46113 | -73.47947 | 3008 ft | 183 kts | 328° |
| 2026-05-09 00:39 | 40.47234 | -73.48759 | 3005 ft | 185 kts | 327° |
| 2026-05-09 00:39 | 40.48353 | -73.49575 | 2994 ft | 182 kts | 327° |
| 2026-05-09 00:39 | 40.49448 | -73.50375 | 2985 ft | 179 kts | 327° |
| 2026-05-09 00:39 | 40.50528 | -73.51168 | 2997 ft | 179 kts | 327° |
| 2026-05-09 00:40 | 40.51396 | -73.51807 | 3001 ft | 180 kts | 327° |
| 2026-05-09 00:40 | 40.52494 | -73.52617 | 3001 ft | 182 kts | 327° |
| 2026-05-09 00:40 | 40.53596 | -73.53434 | 3010 ft | 182 kts | 325° |
| 2026-05-09 00:41 | 40.55190 | -73.55901 | 3005 ft | 178 kts | 303° |
| 2026-05-09 00:41 | 40.55890 | -73.57241 | 2999 ft | 178 kts | 301° |
| 2026-05-09 00:41 | 40.56554 | -73.58612 | 2980 ft | 178 kts | 300° |
| 2026-05-09 00:41 | 40.57195 | -73.60007 | 2817 ft | 177 kts | 299° |
| 2026-05-09 00:42 | 40.57814 | -73.61376 | 2574 ft | 170 kts | 299° |
| 2026-05-09 00:42 | 40.58396 | -73.62668 | 2374 ft | 159 kts | 299° |
| 2026-05-09 00:42 | 40.58931 | -73.63856 | 2185 ft | 147 kts | 300° |
| 2026-05-09 00:42 | 40.59459 | -73.65029 | 1971 ft | 150 kts | 300° |
| 2026-05-09 00:43 | 40.59995 | -73.66219 | 1762 ft | 148 kts | 300° |
| 2026-05-09 00:43 | 40.60511 | -73.67357 | 1580 ft | 147 kts | 300° |
| 2026-05-09 00:43 | 40.61025 | -73.68510 | 1398 ft | 145 kts | 299° |
| 2026-05-09 00:43 | 40.61528 | -73.69667 | 1225 ft | 145 kts | 299° |
| 2026-05-09 00:44 | 40.62024 | -73.70782 | 1058 ft | 145 kts | 300° |
| 2026-05-09 00:44 | 40.62538 | -73.71922 | 902 ft | 145 kts | 299° |
| 2026-05-09 00:44 | 40.63064 | -73.73087 | 688 ft | 151 kts | 302° |
| 2026-05-09 00:45 | 40.63628 | -73.74275 | 467 ft | 156 kts | 300° |
| 2026-05-09 00:45 | 40.64175 | -73.75498 | 231 ft | 158 kts | 300° |
| 2026-05-09 00:45 | 40.64735 | -73.76738 | 29 ft | 153 kts | 300° |
| 2026-05-09 00:45 | 40.65216 | -73.77798 | 16 ft | 108 kts | 302° |
| 2026-05-09 00:46 | 40.65494 | -73.78407 | 18 ft | 47 kts | 300° |
| 2026-05-09 00:46 | 40.65567 | -73.78571 | 17 ft | 15 kts | 300° |
| 2026-05-09 00:46 | 40.65583 | -73.78738 | 17 ft | 15 kts | 225° |
| 2026-05-09 00:46 | 40.65523 | -73.78747 | 17 ft | 7 kts | 144° |
| 2026-05-09 00:47 | 40.65501 | -73.78695 | 15 ft | 6 kts | 115° |
| 2026-05-09 00:47 | 40.65478 | -73.78645 | 15 ft | 6 kts | 121° |
| 2026-05-09 00:47 | 40.65456 | -73.78596 | 16 ft | 6 kts | 121° |
| 2026-05-09 00:47 | 40.65429 | -73.78553 | 16 ft | 6 kts | 142° |
| 2026-05-09 00:48 | 40.65392 | -73.78524 | 15 ft | 6 kts | 154° |
| 2026-05-09 00:48 | 40.65352 | -73.78506 | 15 ft | 5 kts | 170° |
| 2026-05-09 00:48 | 40.65327 | -73.78511 | 15 ft | 1 kts | 209° |
| 2026-05-09 00:48 | 40.65325 | -73.78517 | 15 ft | 1 kts | 233° |
| 2026-05-09 00:49 | 40.65319 | -73.78536 | 15 ft | 5 kts | 246° |
| 2026-05-09 00:49 | 40.65298 | -73.78599 | 15 ft | 8 kts | 246° |